sensor_id;sensor_type;location;lat;lon;timestamp;P1;durP1;ratioP1;P2;durP2;ratioP2
8225;SDS011;4154;48.810;9.012;2023-04-15T00:00:04;4.37;;;2.70;;
8225;SDS011;4154;48.810;9.012;2023-04-15T00:02:31;5.37;;;2.60;;
8225;SDS011;4154;48.810;9.012;2023-04-15T00:04:57;3.90;;;2.70;;
8225;SDS011;4154;48.810;9.012;2023-04-15T00:07:23;5.10;;;2.80;;
8225;SDS011;4154;48.810;9.012;2023-04-15T00:09:49;4.37;;;2.83;;
8225;SDS011;4154;48.810;9.012;2023-04-15T00:12:18;4.80;;;2.80;;
8225;SDS011;4154;48.810;9.012;2023-04-15T00:14:45;4.67;;;2.80;;
8225;SDS011;4154;48.810;9.012;2023-04-15T00:17:11;3.50;;;2.47;;
8225;SDS011;4154;48.810;9.012;2023-04-15T00:19:38;5.23;;;2.93;;
8225;SDS011;4154;48.810;9.012;2023-04-15T00:22:04;3.40;;;2.77;;
8225;SDS011;4154;48.810;9.012;2023-04-15T00:24:31;5.20;;;3.00;;
8225;SDS011;4154;48.810;9.012;2023-04-15T00:26:56;3.43;;;2.77;;
8225;SDS011;4154;48.810;9.012;2023-04-15T00:29:22;5.60;;;2.80;;
8225;SDS011;4154;48.810;9.012;2023-04-15T00:31:49;3.53;;;2.90;;
8225;SDS011;4154;48.810;9.012;2023-04-15T00:34:14;3.43;;;3.00;;
8225;SDS011;4154;48.810;9.012;2023-04-15T00:36:40;4.63;;;2.97;;
8225;SDS011;4154;48.810;9.012;2023-04-15T00:39:06;3.43;;;2.50;;
8225;SDS011;4154;48.810;9.012;2023-04-15T00:41:31;2.90;;;2.43;;
8225;SDS011;4154;48.810;9.012;2023-04-15T00:43:58;3.47;;;2.87;;
8225;SDS011;4154;48.810;9.012;2023-04-15T00:46:27;4.60;;;2.87;;
8225;SDS011;4154;48.810;9.012;2023-04-15T00:48:55;2.60;;;2.40;;
8225;SDS011;4154;48.810;9.012;2023-04-15T00:51:21;3.60;;;2.60;;
8225;SDS011;4154;48.810;9.012;2023-04-15T00:53:48;3.70;;;2.73;;
8225;SDS011;4154;48.810;9.012;2023-04-15T00:56:15;4.03;;;2.60;;
8225;SDS011;4154;48.810;9.012;2023-04-15T00:58:43;3.53;;;2.70;;
8225;SDS011;4154;48.810;9.012;2023-04-15T01:01:09;4.20;;;2.60;;
8225;SDS011;4154;48.810;9.012;2023-04-15T01:03:35;4.47;;;2.80;;
8225;SDS011;4154;48.810;9.012;2023-04-15T01:06:01;3.47;;;2.73;;
8225;SDS011;4154;48.810;9.012;2023-04-15T01:08:28;4.30;;;2.70;;
8225;SDS011;4154;48.810;9.012;2023-04-15T01:10:58;5.03;;;3.10;;
8225;SDS011;4154;48.810;9.012;2023-04-15T01:13:27;4.33;;;2.70;;
8225;SDS011;4154;48.810;9.012;2023-04-15T01:15:55;3.70;;;2.30;;
8225;SDS011;4154;48.810;9.012;2023-04-15T01:18:21;3.93;;;2.77;;
8225;SDS011;4154;48.810;9.012;2023-04-15T01:20:48;4.17;;;2.87;;
8225;SDS011;4154;48.810;9.012;2023-04-15T01:23:14;3.47;;;2.73;;
8225;SDS011;4154;48.810;9.012;2023-04-15T01:25:41;6.07;;;3.00;;
8225;SDS011;4154;48.810;9.012;2023-04-15T01:28:08;4.23;;;2.90;;
8225;SDS011;4154;48.810;9.012;2023-04-15T01:30:35;4.10;;;2.70;;
8225;SDS011;4154;48.810;9.012;2023-04-15T01:33:01;4.50;;;2.77;;
8225;SDS011;4154;48.810;9.012;2023-04-15T01:35:27;4.63;;;3.10;;
8225;SDS011;4154;48.810;9.012;2023-04-15T01:37:53;4.13;;;3.23;;
8225;SDS011;4154;48.810;9.012;2023-04-15T01:40:25;4.07;;;2.90;;
8225;SDS011;4154;48.810;9.012;2023-04-15T01:42:51;3.63;;;2.93;;
8225;SDS011;4154;48.810;9.012;2023-04-15T01:45:17;3.80;;;2.90;;
8225;SDS011;4154;48.810;9.012;2023-04-15T01:47:43;4.10;;;2.90;;
8225;SDS011;4154;48.810;9.012;2023-04-15T01:50:09;3.20;;;2.80;;
8225;SDS011;4154;48.810;9.012;2023-04-15T01:52:35;4.67;;;3.00;;
8225;SDS011;4154;48.810;9.012;2023-04-15T01:55:01;4.23;;;2.83;;
8225;SDS011;4154;48.810;9.012;2023-04-15T01:57:28;4.30;;;3.23;;
8225;SDS011;4154;48.810;9.012;2023-04-15T01:59:53;3.57;;;2.63;;
8225;SDS011;4154;48.810;9.012;2023-04-15T02:02:20;7.07;;;2.90;;
8225;SDS011;4154;48.810;9.012;2023-04-15T02:04:46;2.97;;;2.40;;
8225;SDS011;4154;48.810;9.012;2023-04-15T02:07:12;4.70;;;2.63;;
8225;SDS011;4154;48.810;9.012;2023-04-15T02:09:38;5.03;;;2.70;;
8225;SDS011;4154;48.810;9.012;2023-04-15T02:12:03;3.53;;;2.57;;
8225;SDS011;4154;48.810;9.012;2023-04-15T02:14:29;3.90;;;2.80;;
8225;SDS011;4154;48.810;9.012;2023-04-15T02:16:55;4.90;;;2.90;;
8225;SDS011;4154;48.810;9.012;2023-04-15T02:19:21;2.90;;;2.60;;
8225;SDS011;4154;48.810;9.012;2023-04-15T02:21:47;4.70;;;2.70;;
8225;SDS011;4154;48.810;9.012;2023-04-15T02:24:12;3.90;;;2.80;;
8225;SDS011;4154;48.810;9.012;2023-04-15T02:26:38;3.37;;;3.07;;
8225;SDS011;4154;48.810;9.012;2023-04-15T02:29:04;3.53;;;2.67;;
8225;SDS011;4154;48.810;9.012;2023-04-15T02:31:30;3.17;;;2.70;;
8225;SDS011;4154;48.810;9.012;2023-04-15T02:34:00;5.83;;;2.90;;
8225;SDS011;4154;48.810;9.012;2023-04-15T02:36:28;4.60;;;2.90;;
8225;SDS011;4154;48.810;9.012;2023-04-15T02:38:55;3.97;;;2.83;;
8225;SDS011;4154;48.810;9.012;2023-04-15T02:41:21;4.03;;;3.00;;
8225;SDS011;4154;48.810;9.012;2023-04-15T02:43:51;5.00;;;3.17;;
8225;SDS011;4154;48.810;9.012;2023-04-15T02:46:16;3.40;;;2.67;;
8225;SDS011;4154;48.810;9.012;2023-04-15T02:48:42;4.83;;;3.10;;
8225;SDS011;4154;48.810;9.012;2023-04-15T02:53:45;3.53;;;3.00;;
8225;SDS011;4154;48.810;9.012;2023-04-15T02:56:12;5.20;;;2.90;;
8225;SDS011;4154;48.810;9.012;2023-04-15T02:58:39;4.07;;;2.90;;
8225;SDS011;4154;48.810;9.012;2023-04-15T03:01:06;3.87;;;2.93;;
8225;SDS011;4154;48.810;9.012;2023-04-15T03:03:32;4.67;;;2.93;;
8225;SDS011;4154;48.810;9.012;2023-04-15T03:05:59;4.17;;;2.70;;
8225;SDS011;4154;48.810;9.012;2023-04-15T03:08:24;4.37;;;2.83;;
8225;SDS011;4154;48.810;9.012;2023-04-15T03:10:50;3.63;;;2.80;;
8225;SDS011;4154;48.810;9.012;2023-04-15T03:13:17;4.77;;;2.63;;
8225;SDS011;4154;48.810;9.012;2023-04-15T03:15:45;5.93;;;3.07;;
8225;SDS011;4154;48.810;9.012;2023-04-15T03:18:11;4.17;;;2.80;;
8225;SDS011;4154;48.810;9.012;2023-04-15T03:20:37;4.10;;;3.03;;
8225;SDS011;4154;48.810;9.012;2023-04-15T03:23:03;3.10;;;2.80;;
8225;SDS011;4154;48.810;9.012;2023-04-15T03:25:29;4.03;;;2.83;;
8225;SDS011;4154;48.810;9.012;2023-04-15T03:27:54;3.40;;;2.90;;
8225;SDS011;4154;48.810;9.012;2023-04-15T03:30:20;4.03;;;2.70;;
8225;SDS011;4154;48.810;9.012;2023-04-15T03:32:46;4.00;;;2.70;;
8225;SDS011;4154;48.810;9.012;2023-04-15T03:35:12;4.23;;;3.10;;
8225;SDS011;4154;48.810;9.012;2023-04-15T03:37:38;4.43;;;2.97;;
8225;SDS011;4154;48.810;9.012;2023-04-15T03:40:05;3.73;;;2.83;;
8225;SDS011;4154;48.810;9.012;2023-04-15T03:42:31;4.03;;;2.73;;
8225;SDS011;4154;48.810;9.012;2023-04-15T03:44:58;3.30;;;2.90;;
8225;SDS011;4154;48.810;9.012;2023-04-15T03:47:24;4.07;;;2.77;;
8225;SDS011;4154;48.810;9.012;2023-04-15T03:49:49;3.00;;;2.60;;
8225;SDS011;4154;48.810;9.012;2023-04-15T03:52:15;4.07;;;2.77;;
8225;SDS011;4154;48.810;9.012;2023-04-15T03:54:41;5.13;;;3.10;;
8225;SDS011;4154;48.810;9.012;2023-04-15T03:57:07;3.93;;;2.73;;
8225;SDS011;4154;48.810;9.012;2023-04-15T03:59:33;4.60;;;3.10;;
8225;SDS011;4154;48.810;9.012;2023-04-15T04:01:59;4.67;;;2.70;;
8225;SDS011;4154;48.810;9.012;2023-04-15T04:04:25;4.13;;;2.80;;
8225;SDS011;4154;48.810;9.012;2023-04-15T04:06:50;4.07;;;2.70;;
8225;SDS011;4154;48.810;9.012;2023-04-15T04:09:16;4.00;;;2.83;;
8225;SDS011;4154;48.810;9.012;2023-04-15T04:11:42;5.20;;;2.77;;
8225;SDS011;4154;48.810;9.012;2023-04-15T04:14:09;5.13;;;3.03;;
8225;SDS011;4154;48.810;9.012;2023-04-15T04:16:35;3.27;;;2.60;;
8225;SDS011;4154;48.810;9.012;2023-04-15T04:19:01;3.43;;;2.70;;
8225;SDS011;4154;48.810;9.012;2023-04-15T04:21:26;3.80;;;2.97;;
8225;SDS011;4154;48.810;9.012;2023-04-15T04:23:52;4.80;;;2.63;;
8225;SDS011;4154;48.810;9.012;2023-04-15T04:26:18;3.77;;;2.80;;
8225;SDS011;4154;48.810;9.012;2023-04-15T04:28:43;3.97;;;2.60;;
8225;SDS011;4154;48.810;9.012;2023-04-15T04:31:09;2.83;;;2.63;;
8225;SDS011;4154;48.810;9.012;2023-04-15T04:33:35;4.67;;;2.40;;
8225;SDS011;4154;48.810;9.012;2023-04-15T04:36:01;3.20;;;2.43;;
8225;SDS011;4154;48.810;9.012;2023-04-15T04:38:28;5.03;;;2.67;;
8225;SDS011;4154;48.810;9.012;2023-04-15T04:40:55;5.40;;;2.90;;
8225;SDS011;4154;48.810;9.012;2023-04-15T04:43:21;4.00;;;2.50;;
8225;SDS011;4154;48.810;9.012;2023-04-15T04:45:47;3.83;;;2.60;;
8225;SDS011;4154;48.810;9.012;2023-04-15T04:48:13;3.43;;;2.60;;
8225;SDS011;4154;48.810;9.012;2023-04-15T04:50:38;5.17;;;3.10;;
8225;SDS011;4154;48.810;9.012;2023-04-15T04:53:05;3.33;;;2.60;;
8225;SDS011;4154;48.810;9.012;2023-04-15T04:55:31;2.80;;;2.50;;
8225;SDS011;4154;48.810;9.012;2023-04-15T04:57:57;3.80;;;2.90;;
8225;SDS011;4154;48.810;9.012;2023-04-15T05:00:22;3.23;;;2.73;;
8225;SDS011;4154;48.810;9.012;2023-04-15T05:02:48;3.10;;;2.70;;
8225;SDS011;4154;48.810;9.012;2023-04-15T05:05:14;4.20;;;2.77;;
8225;SDS011;4154;48.810;9.012;2023-04-15T05:07:40;3.10;;;2.67;;
8225;SDS011;4154;48.810;9.012;2023-04-15T05:10:06;3.23;;;2.70;;
8225;SDS011;4154;48.810;9.012;2023-04-15T05:12:33;3.07;;;2.47;;
8225;SDS011;4154;48.810;9.012;2023-04-15T05:14:59;3.93;;;2.70;;
8225;SDS011;4154;48.810;9.012;2023-04-15T05:17:25;5.60;;;2.70;;
8225;SDS011;4154;48.810;9.012;2023-04-15T05:19:51;3.77;;;2.73;;
8225;SDS011;4154;48.810;9.012;2023-04-15T05:22:17;3.33;;;2.90;;
8225;SDS011;4154;48.810;9.012;2023-04-15T05:24:43;6.30;;;3.10;;
8225;SDS011;4154;48.810;9.012;2023-04-15T05:27:09;3.07;;;2.77;;
8225;SDS011;4154;48.810;9.012;2023-04-15T05:29:35;5.47;;;3.23;;
8225;SDS011;4154;48.810;9.012;2023-04-15T05:32:01;3.77;;;2.60;;
8225;SDS011;4154;48.810;9.012;2023-04-15T05:34:27;3.40;;;2.90;;
8225;SDS011;4154;48.810;9.012;2023-04-15T05:36:52;4.00;;;2.80;;
8225;SDS011;4154;48.810;9.012;2023-04-15T05:39:18;4.53;;;3.07;;
8225;SDS011;4154;48.810;9.012;2023-04-15T05:41:44;3.63;;;2.70;;
8225;SDS011;4154;48.810;9.012;2023-04-15T05:44:10;3.93;;;3.03;;
8225;SDS011;4154;48.810;9.012;2023-04-15T05:46:36;5.97;;;2.50;;
8225;SDS011;4154;48.810;9.012;2023-04-15T05:49:01;3.97;;;2.80;;
8225;SDS011;4154;48.810;9.012;2023-04-15T05:51:27;5.70;;;3.13;;
8225;SDS011;4154;48.810;9.012;2023-04-15T05:53:53;4.53;;;3.07;;
8225;SDS011;4154;48.810;9.012;2023-04-15T05:56:20;4.23;;;2.60;;
8225;SDS011;4154;48.810;9.012;2023-04-15T05:58:46;3.97;;;3.00;;
8225;SDS011;4154;48.810;9.012;2023-04-15T06:01:11;4.20;;;2.93;;
8225;SDS011;4154;48.810;9.012;2023-04-15T06:03:37;3.30;;;2.90;;
8225;SDS011;4154;48.810;9.012;2023-04-15T06:06:03;4.00;;;2.80;;
8225;SDS011;4154;48.810;9.012;2023-04-15T06:08:29;4.83;;;2.63;;
8225;SDS011;4154;48.810;9.012;2023-04-15T06:10:55;5.43;;;2.77;;
8225;SDS011;4154;48.810;9.012;2023-04-15T06:13:22;3.90;;;2.87;;
8225;SDS011;4154;48.810;9.012;2023-04-15T06:15:48;3.37;;;2.53;;
8225;SDS011;4154;48.810;9.012;2023-04-15T06:18:14;3.00;;;2.50;;
8225;SDS011;4154;48.810;9.012;2023-04-15T06:20:40;3.73;;;2.83;;
8225;SDS011;4154;48.810;9.012;2023-04-15T06:23:06;3.50;;;2.60;;
8225;SDS011;4154;48.810;9.012;2023-04-15T06:25:32;3.67;;;2.70;;
8225;SDS011;4154;48.810;9.012;2023-04-15T06:27:58;3.37;;;2.70;;
8225;SDS011;4154;48.810;9.012;2023-04-15T06:30:24;3.87;;;2.90;;
8225;SDS011;4154;48.810;9.012;2023-04-15T06:32:49;6.87;;;2.77;;
8225;SDS011;4154;48.810;9.012;2023-04-15T06:35:16;3.00;;;2.50;;
8225;SDS011;4154;48.810;9.012;2023-04-15T06:37:42;4.67;;;2.70;;
8225;SDS011;4154;48.810;9.012;2023-04-15T06:40:08;5.40;;;2.60;;
8225;SDS011;4154;48.810;9.012;2023-04-15T06:42:35;3.67;;;2.70;;
8225;SDS011;4154;48.810;9.012;2023-04-15T06:45:02;3.30;;;2.80;;
8225;SDS011;4154;48.810;9.012;2023-04-15T06:47:28;3.93;;;2.43;;
8225;SDS011;4154;48.810;9.012;2023-04-15T06:49:54;2.73;;;2.53;;
8225;SDS011;4154;48.810;9.012;2023-04-15T06:52:20;4.47;;;2.77;;
8225;SDS011;4154;48.810;9.012;2023-04-15T06:54:46;3.03;;;2.73;;
8225;SDS011;4154;48.810;9.012;2023-04-15T06:57:12;3.67;;;2.80;;
8225;SDS011;4154;48.810;9.012;2023-04-15T06:59:37;5.40;;;2.90;;
8225;SDS011;4154;48.810;9.012;2023-04-15T07:02:03;3.13;;;2.47;;
8225;SDS011;4154;48.810;9.012;2023-04-15T07:04:29;4.33;;;3.10;;
8225;SDS011;4154;48.810;9.012;2023-04-15T07:06:55;4.43;;;3.20;;
8225;SDS011;4154;48.810;9.012;2023-04-15T07:09:22;4.43;;;2.80;;
8225;SDS011;4154;48.810;9.012;2023-04-15T07:11:48;4.67;;;2.70;;
8225;SDS011;4154;48.810;9.012;2023-04-15T07:14:15;3.60;;;2.70;;
8225;SDS011;4154;48.810;9.012;2023-04-15T07:16:41;3.00;;;2.53;;
8225;SDS011;4154;48.810;9.012;2023-04-15T07:19:06;4.27;;;2.43;;
8225;SDS011;4154;48.810;9.012;2023-04-15T07:21:32;4.27;;;2.60;;
8225;SDS011;4154;48.810;9.012;2023-04-15T07:23:58;4.33;;;2.77;;
8225;SDS011;4154;48.810;9.012;2023-04-15T07:26:24;4.83;;;2.73;;
8225;SDS011;4154;48.810;9.012;2023-04-15T07:28:50;3.03;;;2.60;;
8225;SDS011;4154;48.810;9.012;2023-04-15T07:31:16;3.97;;;2.30;;
8225;SDS011;4154;48.810;9.012;2023-04-15T07:33:42;3.40;;;2.53;;
8225;SDS011;4154;48.810;9.012;2023-04-15T07:36:08;5.17;;;2.60;;
8225;SDS011;4154;48.810;9.012;2023-04-15T07:38:34;3.83;;;2.40;;
8225;SDS011;4154;48.810;9.012;2023-04-15T07:41:00;3.67;;;2.73;;
8225;SDS011;4154;48.810;9.012;2023-04-15T07:43:26;3.87;;;2.50;;
8225;SDS011;4154;48.810;9.012;2023-04-15T07:45:52;3.53;;;2.47;;
8225;SDS011;4154;48.810;9.012;2023-04-15T07:48:17;3.40;;;2.40;;
8225;SDS011;4154;48.810;9.012;2023-04-15T07:50:43;4.50;;;2.60;;
8225;SDS011;4154;48.810;9.012;2023-04-15T07:53:09;3.30;;;2.53;;
8225;SDS011;4154;48.810;9.012;2023-04-15T07:55:35;3.83;;;2.37;;
8225;SDS011;4154;48.810;9.012;2023-04-15T07:58:00;5.73;;;2.20;;
8225;SDS011;4154;48.810;9.012;2023-04-15T08:00:26;4.33;;;2.07;;
8225;SDS011;4154;48.810;9.012;2023-04-15T08:02:52;2.80;;;1.73;;
8225;SDS011;4154;48.810;9.012;2023-04-15T08:05:18;3.50;;;1.80;;
8225;SDS011;4154;48.810;9.012;2023-04-15T08:07:44;2.90;;;1.53;;
8225;SDS011;4154;48.810;9.012;2023-04-15T08:10:10;4.13;;;1.80;;
8225;SDS011;4154;48.810;9.012;2023-04-15T08:12:36;3.97;;;1.77;;
8225;SDS011;4154;48.810;9.012;2023-04-15T08:15:02;4.33;;;1.90;;
8225;SDS011;4154;48.810;9.012;2023-04-15T08:17:29;4.13;;;2.20;;
8225;SDS011;4154;48.810;9.012;2023-04-15T08:19:54;3.40;;;2.10;;
8225;SDS011;4154;48.810;9.012;2023-04-15T08:22:21;3.07;;;1.73;;
8225;SDS011;4154;48.810;9.012;2023-04-15T08:24:47;3.40;;;1.90;;
8225;SDS011;4154;48.810;9.012;2023-04-15T08:27:12;4.00;;;2.00;;
8225;SDS011;4154;48.810;9.012;2023-04-15T08:29:38;3.03;;;1.80;;
8225;SDS011;4154;48.810;9.012;2023-04-15T08:32:04;3.57;;;1.80;;
8225;SDS011;4154;48.810;9.012;2023-04-15T08:34:30;3.37;;;1.90;;
8225;SDS011;4154;48.810;9.012;2023-04-15T08:36:56;2.63;;;1.67;;
8225;SDS011;4154;48.810;9.012;2023-04-15T08:39:22;3.33;;;1.80;;
8225;SDS011;4154;48.810;9.012;2023-04-15T08:41:51;5.40;;;1.80;;
8225;SDS011;4154;48.810;9.012;2023-04-15T08:44:27;3.50;;;1.80;;
8225;SDS011;4154;48.810;9.012;2023-04-15T08:46:59;3.43;;;1.73;;
8225;SDS011;4154;48.810;9.012;2023-04-15T08:49:29;3.67;;;1.70;;
8225;SDS011;4154;48.810;9.012;2023-04-15T08:51:59;2.40;;;1.80;;
8225;SDS011;4154;48.810;9.012;2023-04-15T08:54:26;2.13;;;1.63;;
8225;SDS011;4154;48.810;9.012;2023-04-15T08:56:52;4.13;;;1.73;;
8225;SDS011;4154;48.810;9.012;2023-04-15T08:59:19;2.70;;;1.63;;
8225;SDS011;4154;48.810;9.012;2023-04-15T09:01:46;2.57;;;1.70;;
8225;SDS011;4154;48.810;9.012;2023-04-15T09:04:13;3.83;;;1.87;;
8225;SDS011;4154;48.810;9.012;2023-04-15T09:06:41;2.80;;;1.80;;
8225;SDS011;4154;48.810;9.012;2023-04-15T09:09:06;3.43;;;1.80;;
8225;SDS011;4154;48.810;9.012;2023-04-15T09:11:32;2.30;;;1.70;;
8225;SDS011;4154;48.810;9.012;2023-04-15T09:13:59;4.00;;;1.70;;
8225;SDS011;4154;48.810;9.012;2023-04-15T09:16:25;2.87;;;1.70;;
8225;SDS011;4154;48.810;9.012;2023-04-15T09:18:52;2.53;;;2.00;;
8225;SDS011;4154;48.810;9.012;2023-04-15T09:21:18;2.50;;;1.83;;
8225;SDS011;4154;48.810;9.012;2023-04-15T09:23:57;2.90;;;1.70;;
8225;SDS011;4154;48.810;9.012;2023-04-15T09:26:31;2.53;;;1.83;;
8225;SDS011;4154;48.810;9.012;2023-04-15T09:29:02;2.40;;;2.00;;
8225;SDS011;4154;48.810;9.012;2023-04-15T09:31:33;1.97;;;1.60;;
8225;SDS011;4154;48.810;9.012;2023-04-15T09:34:00;2.50;;;1.73;;
8225;SDS011;4154;48.810;9.012;2023-04-15T09:36:27;3.30;;;1.77;;
8225;SDS011;4154;48.810;9.012;2023-04-15T09:38:55;1.77;;;1.50;;
8225;SDS011;4154;48.810;9.012;2023-04-15T09:41:23;2.07;;;1.60;;
8225;SDS011;4154;48.810;9.012;2023-04-15T09:43:50;2.27;;;1.87;;
8225;SDS011;4154;48.810;9.012;2023-04-15T09:46:17;4.27;;;1.90;;
8225;SDS011;4154;48.810;9.012;2023-04-15T09:48:43;2.93;;;1.90;;
8225;SDS011;4154;48.810;9.012;2023-04-15T09:51:09;3.30;;;1.80;;
8225;SDS011;4154;48.810;9.012;2023-04-15T09:53:35;2.27;;;1.90;;
8225;SDS011;4154;48.810;9.012;2023-04-15T09:56:02;3.23;;;1.90;;
8225;SDS011;4154;48.810;9.012;2023-04-15T09:58:31;2.77;;;1.77;;
8225;SDS011;4154;48.810;9.012;2023-04-15T10:00:59;2.30;;;1.97;;
8225;SDS011;4154;48.810;9.012;2023-04-15T10:03:32;4.07;;;2.00;;
8225;SDS011;4154;48.810;9.012;2023-04-15T10:06:00;2.20;;;2.00;;
8225;SDS011;4154;48.810;9.012;2023-04-15T10:08:29;3.30;;;2.23;;
8225;SDS011;4154;48.810;9.012;2023-04-15T10:10:57;2.40;;;2.20;;
8225;SDS011;4154;48.810;9.012;2023-04-15T10:13:25;3.00;;;2.47;;
8225;SDS011;4154;48.810;9.012;2023-04-15T10:16:04;3.47;;;2.42;;
8225;SDS011;4154;48.810;9.012;2023-04-15T10:18:37;3.67;;;2.60;;
8225;SDS011;4154;48.810;9.012;2023-04-15T10:21:08;4.67;;;2.50;;
8225;SDS011;4154;48.810;9.012;2023-04-15T10:23:34;3.53;;;2.67;;
8225;SDS011;4154;48.810;9.012;2023-04-15T10:26:00;3.10;;;2.40;;
8225;SDS011;4154;48.810;9.012;2023-04-15T10:28:30;3.67;;;2.87;;
8225;SDS011;4154;48.810;9.012;2023-04-15T10:30:56;5.37;;;2.70;;
8225;SDS011;4154;48.810;9.012;2023-04-15T10:33:23;4.70;;;3.20;;
8225;SDS011;4154;48.810;9.012;2023-04-15T10:35:51;4.13;;;3.10;;
8225;SDS011;4154;48.810;9.012;2023-04-15T10:38:39;3.40;;;3.10;;
8225;SDS011;4154;48.810;9.012;2023-04-15T10:41:22;3.87;;;2.83;;
8225;SDS011;4154;48.810;9.012;2023-04-15T10:43:51;4.40;;;2.53;;
8225;SDS011;4154;48.810;9.012;2023-04-15T10:49:12;2.53;;;1.93;;
8225;SDS011;4154;48.810;9.012;2023-04-15T10:51:45;3.17;;;2.03;;
8225;SDS011;4154;48.810;9.012;2023-04-15T10:54:29;3.07;;;2.23;;
8225;SDS011;4154;48.810;9.012;2023-04-15T10:59:30;4.07;;;2.40;;
8225;SDS011;4154;48.810;9.012;2023-04-15T11:02:03;5.57;;;2.20;;
8225;SDS011;4154;48.810;9.012;2023-04-15T11:04:50;3.00;;;2.07;;
8225;SDS011;4154;48.810;9.012;2023-04-15T11:07:32;4.03;;;2.20;;
8225;SDS011;4154;48.810;9.012;2023-04-15T11:12:42;4.37;;;2.10;;
8225;SDS011;4154;48.810;9.012;2023-04-15T11:18:11;3.93;;;2.60;;
8225;SDS011;4154;48.810;9.012;2023-04-15T11:23:18;3.67;;;2.85;;
8225;SDS011;4154;48.810;9.012;2023-04-15T11:25:51;5.43;;;2.80;;
8225;SDS011;4154;48.810;9.012;2023-04-15T11:28:23;3.10;;;2.80;;
8225;SDS011;4154;48.810;9.012;2023-04-15T11:30:54;4.07;;;2.63;;
8225;SDS011;4154;48.810;9.012;2023-04-15T11:33:21;4.83;;;3.00;;
8225;SDS011;4154;48.810;9.012;2023-04-15T11:35:48;3.33;;;2.30;;
8225;SDS011;4154;48.810;9.012;2023-04-15T11:38:16;4.82;;;2.45;;
8225;SDS011;4154;48.810;9.012;2023-04-15T11:40:42;5.03;;;2.47;;
8225;SDS011;4154;48.810;9.012;2023-04-15T11:43:09;3.03;;;2.40;;
8225;SDS011;4154;48.810;9.012;2023-04-15T11:45:51;4.27;;;2.80;;
8225;SDS011;4154;48.810;9.012;2023-04-15T11:48:25;3.63;;;3.00;;
8225;SDS011;4154;48.810;9.012;2023-04-15T11:51:04;3.70;;;3.20;;
8225;SDS011;4154;48.810;9.012;2023-04-15T11:53:42;3.90;;;3.05;;
8225;SDS011;4154;48.810;9.012;2023-04-15T11:56:19;4.20;;;3.38;;
8225;SDS011;4154;48.810;9.012;2023-04-15T11:58:47;4.65;;;3.20;;
8225;SDS011;4154;48.810;9.012;2023-04-15T12:01:29;4.47;;;3.28;;
8225;SDS011;4154;48.810;9.012;2023-04-15T12:04:13;3.97;;;2.92;;
8225;SDS011;4154;48.810;9.012;2023-04-15T12:06:43;3.80;;;3.40;;
8225;SDS011;4154;48.810;9.012;2023-04-15T12:09:09;4.18;;;3.17;;
8225;SDS011;4154;48.810;9.012;2023-04-15T12:14:10;4.68;;;3.10;;
8225;SDS011;4154;48.810;9.012;2023-04-15T12:16:56;5.85;;;3.15;;
8225;SDS011;4154;48.810;9.012;2023-04-15T12:22:01;5.68;;;3.00;;
8225;SDS011;4154;48.810;9.012;2023-04-15T12:24:34;3.88;;;2.78;;
8225;SDS011;4154;48.810;9.012;2023-04-15T12:27:02;5.05;;;3.40;;
8225;SDS011;4154;48.810;9.012;2023-04-15T12:29:34;5.00;;;3.40;;
8225;SDS011;4154;48.810;9.012;2023-04-15T12:32:07;3.10;;;2.90;;
8225;SDS011;4154;48.810;9.012;2023-04-15T12:34:38;3.65;;;3.00;;
8225;SDS011;4154;48.810;9.012;2023-04-15T12:37:14;3.28;;;2.97;;
8225;SDS011;4154;48.810;9.012;2023-04-15T12:39:41;4.37;;;3.07;;
8225;SDS011;4154;48.810;9.012;2023-04-15T12:42:09;4.03;;;2.92;;
8225;SDS011;4154;48.810;9.012;2023-04-15T12:44:36;3.87;;;3.20;;
8225;SDS011;4154;48.810;9.012;2023-04-15T12:47:03;3.83;;;2.97;;
8225;SDS011;4154;48.810;9.012;2023-04-15T12:49:29;3.27;;;2.70;;
8225;SDS011;4154;48.810;9.012;2023-04-15T12:51:57;3.33;;;2.57;;
8225;SDS011;4154;48.810;9.012;2023-04-15T12:54:25;5.07;;;2.60;;
8225;SDS011;4154;48.810;9.012;2023-04-15T12:56:51;6.37;;;2.93;;
8225;SDS011;4154;48.810;9.012;2023-04-15T12:59:18;4.82;;;2.88;;
8225;SDS011;4154;48.810;9.012;2023-04-15T13:01:46;3.20;;;2.90;;
8225;SDS011;4154;48.810;9.012;2023-04-15T13:04:13;3.13;;;2.80;;
8225;SDS011;4154;48.810;9.012;2023-04-15T13:06:40;3.83;;;3.00;;
8225;SDS011;4154;48.810;9.012;2023-04-15T13:09:05;3.47;;;2.60;;
8225;SDS011;4154;48.810;9.012;2023-04-15T13:11:31;2.90;;;2.50;;
8225;SDS011;4154;48.810;9.012;2023-04-15T13:14:02;2.80;;;2.30;;
8225;SDS011;4154;48.810;9.012;2023-04-15T13:16:29;2.50;;;2.30;;
8225;SDS011;4154;48.810;9.012;2023-04-15T13:18:56;2.53;;;2.30;;
8225;SDS011;4154;48.810;9.012;2023-04-15T13:21:25;2.87;;;2.17;;
8225;SDS011;4154;48.810;9.012;2023-04-15T13:23:52;2.90;;;1.97;;
8225;SDS011;4154;48.810;9.012;2023-04-15T13:26:18;2.50;;;2.00;;
8225;SDS011;4154;48.810;9.012;2023-04-15T13:28:44;3.10;;;2.20;;
8225;SDS011;4154;48.810;9.012;2023-04-15T13:31:10;2.53;;;2.00;;
8225;SDS011;4154;48.810;9.012;2023-04-15T13:33:36;2.37;;;2.00;;
8225;SDS011;4154;48.810;9.012;2023-04-15T13:36:02;2.30;;;1.90;;
8225;SDS011;4154;48.810;9.012;2023-04-15T13:38:28;4.40;;;2.00;;
8225;SDS011;4154;48.810;9.012;2023-04-15T13:40:54;2.67;;;1.83;;
8225;SDS011;4154;48.810;9.012;2023-04-15T13:43:20;2.67;;;2.00;;
8225;SDS011;4154;48.810;9.012;2023-04-15T13:45:45;2.30;;;1.90;;
8225;SDS011;4154;48.810;9.012;2023-04-15T13:48:11;3.40;;;1.83;;
8225;SDS011;4154;48.810;9.012;2023-04-15T13:50:37;2.30;;;2.10;;
8225;SDS011;4154;48.810;9.012;2023-04-15T13:53:03;3.03;;;1.97;;
8225;SDS011;4154;48.810;9.012;2023-04-15T13:55:29;1.63;;;1.47;;
8225;SDS011;4154;48.810;9.012;2023-04-15T13:57:55;2.90;;;1.50;;
8225;SDS011;4154;48.810;9.012;2023-04-15T14:00:21;1.13;;;1.03;;
8225;SDS011;4154;48.810;9.012;2023-04-15T14:02:47;1.97;;;1.30;;
8225;SDS011;4154;48.810;9.012;2023-04-15T14:05:13;2.77;;;1.50;;
8225;SDS011;4154;48.810;9.012;2023-04-15T14:07:39;2.37;;;1.53;;
8225;SDS011;4154;48.810;9.012;2023-04-15T14:10:05;1.47;;;1.30;;
8225;SDS011;4154;48.810;9.012;2023-04-15T14:12:31;1.70;;;1.40;;
8225;SDS011;4154;48.810;9.012;2023-04-15T14:14:57;2.37;;;1.70;;
8225;SDS011;4154;48.810;9.012;2023-04-15T14:17:23;2.00;;;1.80;;
8225;SDS011;4154;48.810;9.012;2023-04-15T14:19:50;1.80;;;1.60;;
8225;SDS011;4154;48.810;9.012;2023-04-15T14:22:16;2.40;;;1.73;;
8225;SDS011;4154;48.810;9.012;2023-04-15T14:24:42;2.60;;;1.90;;
8225;SDS011;4154;48.810;9.012;2023-04-15T14:27:09;2.33;;;1.97;;
8225;SDS011;4154;48.810;9.012;2023-04-15T14:29:36;2.13;;;1.80;;
8225;SDS011;4154;48.810;9.012;2023-04-15T14:32:02;1.87;;;1.60;;
8225;SDS011;4154;48.810;9.012;2023-04-15T14:34:28;2.20;;;1.70;;
8225;SDS011;4154;48.810;9.012;2023-04-15T14:36:54;3.50;;;2.20;;
8225;SDS011;4154;48.810;9.012;2023-04-15T14:39:23;2.63;;;1.90;;
8225;SDS011;4154;48.810;9.012;2023-04-15T14:41:48;2.73;;;2.00;;
8225;SDS011;4154;48.810;9.012;2023-04-15T14:44:14;2.20;;;1.80;;
8225;SDS011;4154;48.810;9.012;2023-04-15T14:46:42;3.27;;;2.03;;
8225;SDS011;4154;48.810;9.012;2023-04-15T14:49:07;2.90;;;2.17;;
8225;SDS011;4154;48.810;9.012;2023-04-15T14:51:33;2.77;;;2.23;;
8225;SDS011;4154;48.810;9.012;2023-04-15T14:53:58;2.83;;;2.10;;
8225;SDS011;4154;48.810;9.012;2023-04-15T14:56:24;2.73;;;2.00;;
8225;SDS011;4154;48.810;9.012;2023-04-15T14:58:51;2.83;;;2.30;;
8225;SDS011;4154;48.810;9.012;2023-04-15T15:01:18;2.63;;;1.90;;
8225;SDS011;4154;48.810;9.012;2023-04-15T15:03:45;2.07;;;1.80;;
8225;SDS011;4154;48.810;9.012;2023-04-15T15:06:11;2.50;;;2.10;;
8225;SDS011;4154;48.810;9.012;2023-04-15T15:08:37;3.73;;;2.10;;
8225;SDS011;4154;48.810;9.012;2023-04-15T15:11:04;2.97;;;2.20;;
8225;SDS011;4154;48.810;9.012;2023-04-15T15:13:30;2.73;;;2.20;;
8225;SDS011;4154;48.810;9.012;2023-04-15T15:15:56;2.77;;;2.20;;
8225;SDS011;4154;48.810;9.012;2023-04-15T15:18:22;2.40;;;2.20;;
8225;SDS011;4154;48.810;9.012;2023-04-15T15:20:49;3.00;;;2.20;;
8225;SDS011;4154;48.810;9.012;2023-04-15T15:23:15;2.20;;;1.90;;
8225;SDS011;4154;48.810;9.012;2023-04-15T15:25:41;2.17;;;1.97;;
8225;SDS011;4154;48.810;9.012;2023-04-15T15:28:12;2.27;;;2.07;;
8225;SDS011;4154;48.810;9.012;2023-04-15T15:30:38;1.83;;;1.70;;
8225;SDS011;4154;48.810;9.012;2023-04-15T15:33:05;2.20;;;1.80;;
8225;SDS011;4154;48.810;9.012;2023-04-15T15:35:30;2.23;;;1.90;;